sensor_id;sensor_type;location;lat;lon;timestamp;pressure;altitude;pressure_sealevel;temperature;humidity
68986;BME280;56035;37.534;-122.308;2023-04-10T00:00:18;101753.97;;;21.54;32.95
68986;BME280;56035;37.534;-122.308;2023-04-10T00:02:44;101757.94;;;21.48;29.11
68986;BME280;56035;37.534;-122.308;2023-04-10T00:05:11;101752.88;;;21.50;28.48
68986;BME280;56035;37.534;-122.308;2023-04-10T00:07:37;101755.44;;;21.46;30.94
68986;BME280;56035;37.534;-122.308;2023-04-10T00:10:03;101747.38;;;21.35;32.32
68986;BME280;56035;37.534;-122.308;2023-04-10T00:12:29;101752.41;;;21.33;32.90
68986;BME280;56035;37.534;-122.308;2023-04-10T00:14:56;101752.97;;;21.35;32.45
68986;BME280;56035;37.534;-122.308;2023-04-10T00:17:22;101734.75;;;21.37;32.81
68986;BME280;56035;37.534;-122.308;2023-04-10T00:19:48;101735.59;;;21.38;33.98
68986;BME280;56035;37.534;-122.308;2023-04-10T00:22:14;101737.56;;;21.32;33.68
68986;BME280;56035;37.534;-122.308;2023-04-10T00:24:41;101739.00;;;21.30;35.21
68986;BME280;56035;37.534;-122.308;2023-04-10T00:27:07;101740.41;;;21.27;35.75
68986;BME280;56035;37.534;-122.308;2023-04-10T00:29:33;101731.19;;;21.21;32.71
68986;BME280;56035;37.534;-122.308;2023-04-10T00:31:59;101724.81;;;21.16;34.75
68986;BME280;56035;37.534;-122.308;2023-04-10T00:34:25;101729.00;;;21.13;35.57
68986;BME280;56035;37.534;-122.308;2023-04-10T00:36:51;101730.75;;;21.04;36.00
68986;BME280;56035;37.534;-122.308;2023-04-10T00:39:18;101732.44;;;21.00;34.29
68986;BME280;56035;37.534;-122.308;2023-04-10T00:41:44;101727.16;;;20.93;33.46
68986;BME280;56035;37.534;-122.308;2023-04-10T00:44:10;101735.31;;;20.90;33.00
68986;BME280;56035;37.534;-122.308;2023-04-10T00:46:39;101730.56;;;20.85;36.50
68986;BME280;56035;37.534;-122.308;2023-04-10T00:49:05;101725.00;;;20.80;36.34
68986;BME280;56035;37.534;-122.308;2023-04-10T00:51:32;101724.19;;;20.74;34.48
68986;BME280;56035;37.534;-122.308;2023-04-10T00:53:59;101718.84;;;20.73;33.42
68986;BME280;56035;37.534;-122.308;2023-04-10T00:56:26;101714.13;;;20.68;32.76
68986;BME280;56035;37.534;-122.308;2023-04-10T00:58:52;101713.59;;;20.61;33.46
68986;BME280;56035;37.534;-122.308;2023-04-10T01:01:21;101711.94;;;20.60;31.87
68986;BME280;56035;37.534;-122.308;2023-04-10T01:03:47;101707.47;;;20.54;32.34
68986;BME280;56035;37.534;-122.308;2023-04-10T01:11:26;101705.56;;;20.29;33.36
68986;BME280;56035;37.534;-122.308;2023-04-10T01:16:35;101703.94;;;20.13;33.70
68986;BME280;56035;37.534;-122.308;2023-04-10T01:19:24;101696.41;;;19.98;34.34
68986;BME280;56035;37.534;-122.308;2023-04-10T01:21:54;101693.34;;;19.94;33.99
68986;BME280;56035;37.534;-122.308;2023-04-10T01:24:54;101690.59;;;19.79;37.64
68986;BME280;56035;37.534;-122.308;2023-04-10T01:30:21;101697.81;;;19.54;38.38
68986;BME280;56035;37.534;-122.308;2023-04-10T01:32:49;101695.03;;;19.39;37.15
68986;BME280;56035;37.534;-122.308;2023-04-10T01:35:17;101693.66;;;19.26;39.37
68986;BME280;56035;37.534;-122.308;2023-04-10T01:37:46;101691.69;;;19.16;40.31
68986;BME280;56035;37.534;-122.308;2023-04-10T01:40:14;101690.81;;;19.06;42.12
68986;BME280;56035;37.534;-122.308;2023-04-10T01:42:51;101688.28;;;18.94;39.92
68986;BME280;56035;37.534;-122.308;2023-04-10T01:45:20;101682.97;;;18.87;41.95
68986;BME280;56035;37.534;-122.308;2023-04-10T01:47:48;101683.50;;;18.74;41.95
68986;BME280;56035;37.534;-122.308;2023-04-10T01:50:15;101689.00;;;18.64;42.21
68986;BME280;56035;37.534;-122.308;2023-04-10T01:52:43;101677.50;;;18.50;43.23
68986;BME280;56035;37.534;-122.308;2023-04-10T01:55:10;101676.91;;;18.38;42.90
68986;BME280;56035;37.534;-122.308;2023-04-10T01:57:36;101684.38;;;18.22;43.34
68986;BME280;56035;37.534;-122.308;2023-04-10T02:00:03;101686.25;;;18.11;43.57
68986;BME280;56035;37.534;-122.308;2023-04-10T02:02:30;101689.56;;;18.03;46.26
68986;BME280;56035;37.534;-122.308;2023-04-10T02:04:56;101683.31;;;17.86;43.46
68986;BME280;56035;37.534;-122.308;2023-04-10T02:13:04;101688.63;;;17.55;47.46
68986;BME280;56035;37.534;-122.308;2023-04-10T02:15:23;101679.03;;;17.41;47.86
68986;BME280;56035;37.534;-122.308;2023-04-10T02:17:52;101680.03;;;17.29;49.46
68986;BME280;56035;37.534;-122.308;2023-04-10T02:20:21;101678.00;;;17.20;47.98
68986;BME280;56035;37.534;-122.308;2023-04-10T02:22:49;101674.34;;;17.14;48.32
68986;BME280;56035;37.534;-122.308;2023-04-10T02:25:15;101679.56;;;17.05;48.10
68986;BME280;56035;37.534;-122.308;2023-04-10T02:27:41;101681.13;;;16.96;49.46
68986;BME280;56035;37.534;-122.308;2023-04-10T02:30:08;101682.13;;;16.85;50.40
68986;BME280;56035;37.534;-122.308;2023-04-10T02:32:34;101682.75;;;16.70;51.79
68986;BME280;56035;37.534;-122.308;2023-04-10T02:35:02;101671.50;;;16.60;52.98
68986;BME280;56035;37.534;-122.308;2023-04-10T02:37:29;101677.16;;;16.43;55.02
68986;BME280;56035;37.534;-122.308;2023-04-10T02:39:55;101680.41;;;16.35;54.23
68986;BME280;56035;37.534;-122.308;2023-04-10T02:42:21;101669.91;;;16.20;53.90
68986;BME280;56035;37.534;-122.308;2023-04-10T02:44:48;101673.91;;;16.07;55.75
68986;BME280;56035;37.534;-122.308;2023-04-10T02:47:14;101681.50;;;15.95;54.56
68986;BME280;56035;37.534;-122.308;2023-04-10T02:49:41;101686.91;;;15.85;55.08
68986;BME280;56035;37.534;-122.308;2023-04-10T02:52:07;101684.25;;;15.73;54.47
68986;BME280;56035;37.534;-122.308;2023-04-10T02:54:33;101685.47;;;15.65;54.11
68986;BME280;56035;37.534;-122.308;2023-04-10T02:57:00;101689.75;;;15.56;53.67
68986;BME280;56035;37.534;-122.308;2023-04-10T02:59:26;101684.03;;;15.46;53.14
68986;BME280;56035;37.534;-122.308;2023-04-10T03:01:52;101693.31;;;15.35;53.20
68986;BME280;56035;37.534;-122.308;2023-04-10T03:04:18;101692.53;;;15.22;52.57
68986;BME280;56035;37.534;-122.308;2023-04-10T03:06:45;101687.91;;;15.11;51.86
68986;BME280;56035;37.534;-122.308;2023-04-10T03:09:11;101687.72;;;15.01;51.27
68986;BME280;56035;37.534;-122.308;2023-04-10T03:11:37;101686.66;;;14.90;53.17
68986;BME280;56035;37.534;-122.308;2023-04-10T03:14:04;101684.81;;;14.79;52.33
68986;BME280;56035;37.534;-122.308;2023-04-10T03:16:30;101690.16;;;14.69;52.59
68986;BME280;56035;37.534;-122.308;2023-04-10T03:18:56;101683.81;;;14.57;52.18
68986;BME280;56035;37.534;-122.308;2023-04-10T03:21:22;101683.31;;;14.48;51.97
68986;BME280;56035;37.534;-122.308;2023-04-10T03:23:49;101682.88;;;14.39;52.38
68986;BME280;56035;37.534;-122.308;2023-04-10T03:26:15;101686.28;;;14.29;51.87
68986;BME280;56035;37.534;-122.308;2023-04-10T03:28:41;101674.09;;;14.19;50.87
68986;BME280;56035;37.534;-122.308;2023-04-10T03:31:08;101680.25;;;14.09;51.30
68986;BME280;56035;37.534;-122.308;2023-04-10T03:33:35;101682.31;;;14.02;51.82
68986;BME280;56035;37.534;-122.308;2023-04-10T03:36:01;101684.03;;;13.91;51.21
68986;BME280;56035;37.534;-122.308;2023-04-10T03:38:27;101688.84;;;13.84;50.32
68986;BME280;56035;37.534;-122.308;2023-04-10T03:40:53;101687.28;;;13.76;50.83
68986;BME280;56035;37.534;-122.308;2023-04-10T03:43:20;101691.63;;;13.72;51.08
68986;BME280;56035;37.534;-122.308;2023-04-10T03:45:46;101692.56;;;13.66;50.66
68986;BME280;56035;37.534;-122.308;2023-04-10T03:48:12;101687.41;;;13.58;51.34
68986;BME280;56035;37.534;-122.308;2023-04-10T03:50:38;101689.44;;;13.51;51.35
68986;BME280;56035;37.534;-122.308;2023-04-10T03:53:04;101689.31;;;13.46;51.58
68986;BME280;56035;37.534;-122.308;2023-04-10T03:55:31;101694.13;;;13.39;52.46
68986;BME280;56035;37.534;-122.308;2023-04-10T03:57:57;101704.47;;;13.31;52.74
68986;BME280;56035;37.534;-122.308;2023-04-10T04:00:23;101703.72;;;13.24;52.89
68986;BME280;56035;37.534;-122.308;2023-04-10T04:02:51;101704.03;;;13.16;53.47
68986;BME280;56035;37.534;-122.308;2023-04-10T04:05:17;101706.63;;;13.11;52.89
68986;BME280;56035;37.534;-122.308;2023-04-10T04:07:43;101716.97;;;13.04;54.64
68986;BME280;56035;37.534;-122.308;2023-04-10T04:10:09;101712.84;;;12.95;54.24
68986;BME280;56035;37.534;-122.308;2023-04-10T04:12:36;101716.56;;;12.88;54.86
68986;BME280;56035;37.534;-122.308;2023-04-10T04:15:02;101721.94;;;12.83;55.28
68986;BME280;56035;37.534;-122.308;2023-04-10T04:17:28;101719.03;;;12.78;55.43
68986;BME280;56035;37.534;-122.308;2023-04-10T04:19:55;101724.44;;;12.73;56.41
68986;BME280;56035;37.534;-122.308;2023-04-10T04:22:21;101725.34;;;12.67;61.37
68986;BME280;56035;37.534;-122.308;2023-04-10T04:24:47;101726.75;;;12.58;61.06
68986;BME280;56035;37.534;-122.308;2023-04-10T04:27:13;101724.31;;;12.50;61.47
68986;BME280;56035;37.534;-122.308;2023-04-10T04:29:40;101736.28;;;12.44;62.71
68986;BME280;56035;37.534;-122.308;2023-04-10T04:32:06;101723.38;;;12.37;62.74
68986;BME280;56035;37.534;-122.308;2023-04-10T04:34:32;101730.66;;;12.32;62.70
68986;BME280;56035;37.534;-122.308;2023-04-10T04:36:58;101731.84;;;12.24;63.18
68986;BME280;56035;37.534;-122.308;2023-04-10T04:39:24;101732.50;;;12.19;64.95
68986;BME280;56035;37.534;-122.308;2023-04-10T04:41:51;101726.59;;;12.16;68.64
68986;BME280;56035;37.534;-122.308;2023-04-10T04:44:17;101727.13;;;12.06;71.61
68986;BME280;56035;37.534;-122.308;2023-04-10T04:46:44;101736.56;;;11.99;74.73
68986;BME280;56035;37.534;-122.308;2023-04-10T04:49:11;101738.31;;;11.93;75.05
68986;BME280;56035;37.534;-122.308;2023-04-10T04:51:37;101732.00;;;11.86;76.53
68986;BME280;56035;37.534;-122.308;2023-04-10T04:54:04;101738.19;;;11.81;77.63
68986;BME280;56035;37.534;-122.308;2023-04-10T04:56:30;101738.47;;;11.73;79.75
68986;BME280;56035;37.534;-122.308;2023-04-10T04:58:56;101740.69;;;11.64;82.66
68986;BME280;56035;37.534;-122.308;2023-04-10T05:01:23;101734.13;;;11.59;82.96
68986;BME280;56035;37.534;-122.308;2023-04-10T05:03:49;101732.91;;;11.55;84.78
68986;BME280;56035;37.534;-122.308;2023-04-10T05:06:15;101732.09;;;11.47;88.33
68986;BME280;56035;37.534;-122.308;2023-04-10T05:08:43;101734.31;;;11.39;93.61
68986;BME280;56035;37.534;-122.308;2023-04-10T05:11:09;101735.81;;;11.35;92.46
68986;BME280;56035;37.534;-122.308;2023-04-10T05:13:36;101739.22;;;11.30;91.59
68986;BME280;56035;37.534;-122.308;2023-04-10T05:16:02;101739.69;;;11.27;92.43
68986;BME280;56035;37.534;-122.308;2023-04-10T05:18:28;101738.44;;;11.23;93.27
68986;BME280;56035;37.534;-122.308;2023-04-10T05:20:55;101736.56;;;11.17;94.98
68986;BME280;56035;37.534;-122.308;2023-04-10T05:23:21;101730.91;;;11.12;93.24
68986;BME280;56035;37.534;-122.308;2023-04-10T05:25:47;101741.28;;;11.10;95.70
68986;BME280;56035;37.534;-122.308;2023-04-10T05:28:13;101747.25;;;11.07;96.64
68986;BME280;56035;37.534;-122.308;2023-04-10T05:30:40;101738.19;;;10.99;96.15
68986;BME280;56035;37.534;-122.308;2023-04-10T05:33:06;101729.72;;;10.94;96.23
68986;BME280;56035;37.534;-122.308;2023-04-10T05:35:32;101736.50;;;10.92;99.09
68986;BME280;56035;37.534;-122.308;2023-04-10T05:37:58;101730.59;;;10.88;96.89
68986;BME280;56035;37.534;-122.308;2023-04-10T05:40:26;101731.03;;;10.85;96.83
68986;BME280;56035;37.534;-122.308;2023-04-10T05:42:52;101726.41;;;10.79;98.45
68986;BME280;56035;37.534;-122.308;2023-04-10T05:45:19;101733.22;;;10.76;98.24
68986;BME280;56035;37.534;-122.308;2023-04-10T05:47:45;101731.28;;;10.77;98.27
68986;BME280;56035;37.534;-122.308;2023-04-10T05:50:11;101726.91;;;10.69;100.00
68986;BME280;56035;37.534;-122.308;2023-04-10T05:52:37;101730.72;;;10.62;100.00
68986;BME280;56035;37.534;-122.308;2023-04-10T05:55:04;101731.16;;;10.59;100.00
68986;BME280;56035;37.534;-122.308;2023-04-10T05:57:30;101725.25;;;10.55;100.00
68986;BME280;56035;37.534;-122.308;2023-04-10T05:59:57;101713.19;;;10.49;100.00
68986;BME280;56035;37.534;-122.308;2023-04-10T06:02:23;101721.03;;;10.46;100.00
68986;BME280;56035;37.534;-122.308;2023-04-10T06:04:50;101721.47;;;10.43;100.00
68986;BME280;56035;37.534;-122.308;2023-04-10T06:07:15;101728.72;;;10.37;100.00
68986;BME280;56035;37.534;-122.308;2023-04-10T06:09:42;101721.31;;;10.31;100.00
68986;BME280;56035;37.534;-122.308;2023-04-10T06:12:08;101727.47;;;10.26;100.00
68986;BME280;56035;37.534;-122.308;2023-04-10T06:14:34;101714.97;;;10.24;100.00
68986;BME280;56035;37.534;-122.308;2023-04-10T06:17:00;101721.75;;;10.21;100.00
68986;BME280;56035;37.534;-122.308;2023-04-10T06:19:26;101719.41;;;10.18;100.00
68986;BME280;56035;37.534;-122.308;2023-04-10T06:21:53;101715.81;;;10.18;100.00
68986;BME280;56035;37.534;-122.308;2023-04-10T06:24:19;101716.03;;;10.16;100.00
68986;BME280;56035;37.534;-122.308;2023-04-10T06:26:45;101719.63;;;10.17;100.00
68986;BME280;56035;37.534;-122.308;2023-04-10T06:29:11;101717.31;;;10.14;100.00
68986;BME280;56035;37.534;-122.308;2023-04-10T06:31:38;101717.75;;;10.11;100.00
68986;BME280;56035;37.534;-122.308;2023-04-10T06:34:04;101710.97;;;10.06;100.00
68986;BME280;56035;37.534;-122.308;2023-04-10T06:36:30;101707.38;;;10.06;100.00
68986;BME280;56035;37.534;-122.308;2023-04-10T06:38:56;101707.59;;;10.04;100.00
68986;BME280;56035;37.534;-122.308;2023-04-10T06:41:22;101704.22;;;10.02;100.00
68986;BME280;56035;37.534;-122.308;2023-04-10T06:43:49;101702.13;;;9.98;100.00
68986;BME280;56035;37.534;-122.308;2023-04-10T06:46:15;101704.22;;;9.96;100.00
68986;BME280;56035;37.534;-122.308;2023-04-10T06:48:42;101707.81;;;9.96;100.00
68986;BME280;56035;37.534;-122.308;2023-04-10T06:51:08;101704.88;;;9.91;100.00
68986;BME280;56035;37.534;-122.308;2023-04-10T06:53:34;101702.97;;;9.92;100.00
68986;BME280;56035;37.534;-122.308;2023-04-10T06:56:00;101700.63;;;9.89;100.00
68986;BME280;56035;37.534;-122.308;2023-04-10T06:58:27;101702.97;;;9.85;100.00
68986;BME280;56035;37.534;-122.308;2023-04-10T07:00:53;101702.56;;;9.81;100.00
68986;BME280;56035;37.534;-122.308;2023-04-10T07:03:19;101693.66;;;9.79;100.00
68986;BME280;56035;37.534;-122.308;2023-04-10T07:05:45;101697.69;;;9.77;100.00
68986;BME280;56035;37.534;-122.308;2023-04-10T07:08:11;101695.34;;;9.74;100.00
68986;BME280;56035;37.534;-122.308;2023-04-10T07:10:37;101696.19;;;9.74;100.00
68986;BME280;56035;37.534;-122.308;2023-04-10T07:13:04;101697.50;;;9.72;100.00
68986;BME280;56035;37.534;-122.308;2023-04-10T07:15:30;101703.44;;;9.69;100.00
68986;BME280;56035;37.534;-122.308;2023-04-10T07:17:56;101691.59;;;9.68;100.00
68986;BME280;56035;37.534;-122.308;2023-04-10T07:20:22;101688.81;;;9.68;100.00
68986;BME280;56035;37.534;-122.308;2023-04-10T07:22:48;101688.19;;;9.66;100.00
68986;BME280;56035;37.534;-122.308;2023-04-10T07:25:15;101699.63;;;9.63;100.00
68986;BME280;56035;37.534;-122.308;2023-04-10T07:27:43;101692.44;;;9.62;100.00
68986;BME280;56035;37.534;-122.308;2023-04-10T07:30:09;101700.03;;;9.60;100.00
68986;BME280;56035;37.534;-122.308;2023-04-10T07:32:36;101691.13;;;9.58;100.00
68986;BME280;56035;37.534;-122.308;2023-04-10T07:35:05;101694.13;;;9.56;100.00
68986;BME280;56035;37.534;-122.308;2023-04-10T07:37:31;101691.59;;;9.55;100.00
68986;BME280;56035;37.534;-122.308;2023-04-10T07:39:58;101699.63;;;9.56;100.00
68986;BME280;56035;37.534;-122.308;2023-04-10T07:42:24;101692.88;;;9.52;100.00
68986;BME280;56035;37.534;-122.308;2023-04-10T07:44:50;101701.94;;;9.53;100.00
68986;BME280;56035;37.534;-122.308;2023-04-10T07:47:16;101696.88;;;9.50;100.00
68986;BME280;56035;37.534;-122.308;2023-04-10T07:49:42;101683.53;;;9.47;100.00
68986;BME280;56035;37.534;-122.308;2023-04-10T07:52:08;101698.78;;;9.43;100.00
68986;BME280;56035;37.534;-122.308;2023-04-10T07:54:35;101696.03;;;9.43;100.00
68986;BME280;56035;37.534;-122.308;2023-04-10T07:57:01;101695.63;;;9.39;100.00
68986;BME280;56035;37.534;-122.308;2023-04-10T07:59:27;101692.44;;;9.35;100.00
68986;BME280;56035;37.534;-122.308;2023-04-10T08:01:54;101689.06;;;9.33;100.00
68986;BME280;56035;37.534;-122.308;2023-04-10T08:04:20;101688.63;;;9.30;100.00
68986;BME280;56035;37.534;-122.308;2023-04-10T08:06:46;101680.81;;;9.27;100.00
68986;BME280;56035;37.534;-122.308;2023-04-10T08:09:14;101681.88;;;9.26;100.00
68986;BME280;56035;37.534;-122.308;2023-04-10T08:11:40;101682.28;;;9.23;100.00
68986;BME280;56035;37.534;-122.308;2023-04-10T08:14:06;101680.56;;;9.22;100.00
68986;BME280;56035;37.534;-122.308;2023-04-10T08:16:34;101680.81;;;9.20;100.00
68986;BME280;56035;37.534;-122.308;2023-04-10T08:19:01;101678.25;;;9.19;100.00
68986;BME280;56035;37.534;-122.308;2023-04-10T08:21:29;101675.94;;;9.16;100.00
68986;BME280;56035;37.534;-122.308;2023-04-10T08:23:58;101679.72;;;9.14;100.00
68986;BME280;56035;37.534;-122.308;2023-04-10T08:26:25;101673.81;;;9.11;100.00
68986;BME280;56035;37.534;-122.308;2023-04-10T08:28:53;101666.81;;;9.08;100.00
68986;BME280;56035;37.534;-122.308;2023-04-10T08:31:22;101664.50;;;9.05;100.00
68986;BME280;56035;37.534;-122.308;2023-04-10T08:33:49;101663.03;;;9.03;100.00
68986;BME280;56035;37.534;-122.308;2023-04-10T08:36:16;101660.69;;;9.00;100.00
68986;BME280;56035;37.534;-122.308;2023-04-10T08:38:43;101662.16;;;8.96;100.00
68986;BME280;56035;37.534;-122.308;2023-04-10T08:41:11;101667.03;;;8.94;100.00
68986;BME280;56035;37.534;-122.308;2023-04-10T08:43:38;101656.22;;;8.92;100.00
68986;BME280;56035;37.534;-122.308;2023-04-10T08:46:04;101649.06;;;8.91;100.00
68986;BME280;56035;37.534;-122.308;2023-04-10T08:48:37;101655.81;;;8.88;100.00
68986;BME280;56035;37.534;-122.308;2023-04-10T08:51:04;101651.16;;;8.82;100.00
68986;BME280;56035;37.534;-122.308;2023-04-10T08:53:37;101645.03;;;8.80;100.00
68986;BME280;56035;37.534;-122.308;2023-04-10T08:56:06;101651.56;;;8.79;100.00
68986;BME280;56035;37.534;-122.308;2023-04-10T08:58:32;101642.69;;;8.77;100.00
68986;BME280;56035;37.534;-122.308;2023-04-10T09:01:00;101643.31;;;8.73;100.00
68986;BME280;56035;37.534;-122.308;2023-04-10T09:03:26;101638.03;;;8.71;100.00
68986;BME280;56035;37.534;-122.308;2023-04-10T09:05:53;101640.13;;;8.69;100.00
68986;BME280;56035;37.534;-122.308;2023-04-10T09:08:19;101648.38;;;8.69;100.00
68986;BME280;56035;37.534;-122.308;2023-04-10T09:10:45;101639.50;;;8.67;100.00
68986;BME280;56035;37.534;-122.308;2023-04-10T09:13:12;101639.09;;;8.63;100.00
68986;BME280;56035;37.534;-122.308;2023-04-10T09:15:58;101635.69;;;8.61;100.00
68986;BME280;56035;37.534;-122.308;2023-04-10T09:18:44;101632.28;;;8.59;100.00
68986;BME280;56035;37.534;-122.308;2023-04-10T09:21:13;101627.22;;;8.56;100.00
68986;BME280;56035;37.534;-122.308;2023-04-10T09:23:41;101624.03;;;8.53;100.00
68986;BME280;56035;37.534;-122.308;2023-04-10T09:26:34;101619.84;;;8.50;100.00
68986;BME280;56035;37.534;-122.308;2023-04-10T09:29:02;101613.25;;;8.44;100.00
68986;BME280;56035;37.534;-122.308;2023-04-10T09:31:34;101618.31;;;8.41;100.00
68986;BME280;56035;37.534;-122.308;2023-04-10T09:34:09;101611.13;;;8.40;100.00
68986;BME280;56035;37.534;-122.308;2023-04-10T09:36:35;101606.22;;;8.35;100.00
68986;BME280;56035;37.534;-122.308;2023-04-10T09:39:07;101608.31;;;8.33;100.00
68986;BME280;56035;37.534;-122.308;2023-04-10T09:41:33;101609.59;;;8.31;100.00
68986;BME280;56035;37.534;-122.308;2023-04-10T09:44:10;101603.47;;;8.29;100.00
68986;BME280;56035;37.534;-122.308;2023-04-10T09:46:37;101603.88;;;8.26;100.00
68986;BME280;56035;37.534;-122.308;2023-04-10T09:49:03;101594.78;;;8.25;100.00
68986;BME280;56035;37.534;-122.308;2023-04-10T09:51:31;101589.50;;;8.24;100.00
68986;BME280;56035;37.534;-122.308;2023-04-10T09:53:58;101585.06;;;8.23;100.00
68986;BME280;56035;37.534;-122.308;2023-04-10T09:56:25;101596.28;;;8.21;100.00
68986;BME280;56035;37.534;-122.308;2023-04-10T09:59:00;101591.63;;;8.21;100.00
68986;BME280;56035;37.534;-122.308;2023-04-10T10:01:27;101580.00;;;8.19;100.00
68986;BME280;56035;37.534;-122.308;2023-04-10T10:03:55;101576.19;;;8.20;100.00
68986;BME280;56035;37.534;-122.308;2023-04-10T10:06:25;101578.50;;;8.17;100.00
68986;BME280;56035;37.534;-122.308;2023-04-10T10:08:51;101579.38;;;8.17;100.00
68986;BME280;56035;37.534;-122.308;2023-04-10T10:11:20;101574.91;;;8.16;100.00
68986;BME280;56035;37.534;-122.308;2023-04-10T10:13:51;101573.41;;;8.14;100.00
68986;BME280;56035;37.534;-122.308;2023-04-10T10:16:49;101568.16;;;8.12;100.00
68986;BME280;56035;37.534;-122.308;2023-04-10T10:21:56;101564.75;;;8.10;100.00
68986;BME280;56035;37.534;-122.308;2023-04-10T10:24:27;101562.41;;;8.07;100.00
68986;BME280;56035;37.534;-122.308;2023-04-10T10:26:54;101558.22;;;8.05;100.00
68986;BME280;56035;37.534;-122.308;2023-04-10T10:29:23;101563.69;;;8.05;100.00
68986;BME280;56035;37.534;-122.308;2023-04-10T10:31:51;101569.38;;;8.03;100.00
68986;BME280;56035;37.534;-122.308;2023-04-10T10:34:18;101566.00;;;8.01;100.00
68986;BME280;56035;37.534;-122.308;2023-04-10T10:36:44;101563.69;;;7.98;100.00
68986;BME280;56035;37.534;-122.308;2023-04-10T10:39:28;101566.59;;;7.96;100.00
68986;BME280;56035;37.534;-122.308;2023-04-10T10:42:06;101560.47;;;7.94;100.00
68986;BME280;56035;37.534;-122.308;2023-04-10T10:47:16;101556.03;;;7.87;100.00
68986;BME280;56035;37.534;-122.308;2023-04-10T10:49:57;101564.88;;;7.82;100.00
68986;BME280;56035;37.534;-122.308;2023-04-10T10:52:46;101560.22;;;7.83;100.00
68986;BME280;56035;37.534;-122.308;2023-04-10T10:55:27;101562.97;;;7.83;100.00
68986;BME280;56035;37.534;-122.308;2023-04-10T10:58:00;101559.38;;;7.82;100.00
68986;BME280;56035;37.534;-122.308;2023-04-10T11:05:53;101542.66;;;7.70;100.00
68986;BME280;56035;37.534;-122.308;2023-04-10T11:11:05;101534.41;;;7.64;100.00
68986;BME280;56035;37.534;-122.308;2023-04-10T11:13:33;101548.94;;;7.64;100.00
68986;BME280;56035;37.534;-122.308;2023-04-10T11:16:02;101536.31;;;7.63;100.00
68986;BME280;56035;37.534;-122.308;2023-04-10T11:21:11;101543.25;;;7.59;100.00
68986;BME280;56035;37.534;-122.308;2023-04-10T11:31:57;101540.91;;;7.56;100.00
68986;BME280;56035;37.534;-122.308;2023-04-10T11:34:23;101541.94;;;7.55;100.00
68986;BME280;56035;37.534;-122.308;2023-04-10T11:36:52;101531.84;;;7.56;100.00
68986;BME280;56035;37.534;-122.308;2023-04-10T11:39:38;101532.47;;;7.58;100.00
68986;BME280;56035;37.534;-122.308;2023-04-10T11:42:04;101528.44;;;7.54;100.00
68986;BME280;56035;37.534;-122.308;2023-04-10T11:44:33;101533.72;;;7.55;100.00
68986;BME280;56035;37.534;-122.308;2023-04-10T11:47:05;101537.72;;;7.53;100.00
68986;BME280;56035;37.534;-122.308;2023-04-10T11:49:32;101538.56;;;7.53;100.00
68986;BME280;56035;37.534;-122.308;2023-04-10T11:51:59;101538.13;;;7.49;100.00
68986;BME280;56035;37.534;-122.308;2023-04-10T11:54:27;101533.91;;;7.47;100.00
68986;BME280;56035;37.534;-122.308;2023-04-10T11:57:04;101541.47;;;7.45;100.00
68986;BME280;56035;37.534;-122.308;2023-04-10T11:59:32;101536.59;;;7.40;100.00
68986;BME280;56035;37.534;-122.308;2023-04-10T12:02:08;101540.19;;;7.41;100.00
68986;BME280;56035;37.534;-122.308;2023-04-10T12:04:34;101533.88;;;7.40;100.00
68986;BME280;56035;37.534;-122.308;2023-04-10T12:07:01;101534.91;;;7.39;100.00
68986;BME280;56035;37.534;-122.308;2023-04-10T12:09:27;101531.53;;;7.37;100.00
68986;BME280;56035;37.534;-122.308;2023-04-10T12:12:01;101522.47;;;7.37;100.00
68986;BME280;56035;37.534;-122.308;2023-04-10T12:14:50;101527.28;;;7.35;100.00
68986;BME280;56035;37.534;-122.308;2023-04-10T12:17:16;101526.84;;;7.31;100.00
68986;BME280;56035;37.534;-122.308;2023-04-10T12:19:43;101530.84;;;7.28;100.00
68986;BME280;56035;37.534;-122.308;2023-04-10T12:22:10;101529.81;;;7.30;100.00
68986;BME280;56035;37.534;-122.308;2023-04-10T12:24:48;101536.72;;;7.25;100.00
68986;BME280;56035;37.534;-122.308;2023-04-10T12:27:25;101530.59;;;7.23;100.00
68986;BME280;56035;37.534;-122.308;2023-04-10T12:29:54;101533.09;;;7.18;100.00
68986;BME280;56035;37.534;-122.308;2023-04-10T12:32:21;101538.97;;;7.15;100.00
68986;BME280;56035;37.534;-122.308;2023-04-10T12:34:50;101540.03;;;7.14;100.00
68986;BME280;56035;37.534;-122.308;2023-04-10T12:37:17;101542.94;;;7.13;100.00
68986;BME280;56035;37.534;-122.308;2023-04-10T12:39:44;101537.47;;;7.13;100.00
68986;BME280;56035;37.534;-122.308;2023-04-10T12:42:30;101529.03;;;7.08;100.00
68986;BME280;56035;37.534;-122.308;2023-04-10T12:45:05;101532.16;;;7.04;100.00
68986;BME280;56035;37.534;-122.308;2023-04-10T12:47:43;101531.72;;;7.01;100.00
68986;BME280;56035;37.534;-122.308;2023-04-10T12:50:14;101530.88;;;7.00;100.00
68986;BME280;56035;37.534;-122.308;2023-04-10T12:52:45;101523.91;;;6.98;100.00
68986;BME280;56035;37.534;-122.308;2023-04-10T12:55:16;101535.03;;;6.96;100.00
68986;BME280;56035;37.534;-122.308;2023-04-10T12:57:45;101539.88;;;6.94;100.00
68986;BME280;56035;37.534;-122.308;2023-04-10T13:00:14;101539.22;;;6.92;100.00
68986;BME280;56035;37.534;-122.308;2023-04-10T13:02:40;101539.84;;;6.88;100.00
68986;BME280;56035;37.534;-122.308;2023-04-10T13:05:07;101537.50;;;6.85;100.00